createdAt,value
2023-02-07T00:01:48.862Z,103690.25
2023-02-07T00:06:51.569Z,103703.38
2023-02-07T00:11:55.589Z,103698.31
2023-02-07T00:16:58.571Z,103693.00
2023-02-07T00:22:02.318Z,103694.06
2023-02-07T00:27:07.958Z,103692.28
2023-02-07T00:32:10.801Z,103690.41
2023-02-07T00:37:13.374Z,103703.56
2023-02-07T00:42:17.295Z,103717.28
2023-02-07T00:47:20.220Z,103708.09
2023-02-07T00:52:22.857Z,103720.44
2023-02-07T00:57:26.736Z,103704.50
2023-02-07T01:02:29.258Z,103699.50
2023-02-07T01:07:31.899Z,103709.25
2023-02-07T01:12:35.935Z,103684.66
2023-02-07T01:17:38.485Z,103690.16
2023-02-07T01:22:41.166Z,103697.16
2023-02-07T01:27:45.032Z,103691.78
2023-02-07T01:32:47.726Z,103674.53
2023-02-07T01:37:50.851Z,103686.53
2023-02-07T01:42:55.896Z,103673.44
2023-02-07T01:48:05.407Z,103657.59
2023-02-07T01:53:08.440Z,103686.66
2023-02-07T01:58:12.806Z,103698.91
2023-02-07T02:03:15.446Z,103690.06
2023-02-07T02:08:18.197Z,103703.19
2023-02-07T02:13:29.555Z,103700.59
2023-02-07T02:19:07.964Z,103710.06
2023-02-07T02:24:39.747Z,103708.09
2023-02-07T02:30:10.306Z,103702.97
2023-02-07T02:35:21.487Z,103689.75
2023-02-07T02:40:32.564Z,103699.44
2023-02-07T02:45:41.342Z,103700.28
2023-02-07T02:50:49.362Z,103695.78
2023-02-07T02:56:21.404Z,103683.72
2023-02-07T03:01:35.904Z,103693.19
2023-02-07T03:06:51.952Z,103689.53
2023-02-07T03:11:59.814Z,103682.50
2023-02-07T03:17:13.248Z,103640.50
2023-02-07T03:22:23.093Z,103678.28
2023-02-07T03:27:29.735Z,103690.31
2023-02-07T03:32:36.902Z,103692.78
2023-02-07T03:37:43.683Z,103682.31
2023-02-07T03:42:51.904Z,103690.06
2023-02-07T03:47:54.515Z,103697.94
2023-02-07T03:52:58.395Z,103687.56
2023-02-07T03:58:01.148Z,103685.78
2023-02-07T04:03:04.002Z,103684.94
2023-02-07T04:08:07.870Z,103682.84
2023-02-07T04:13:10.822Z,103682.81
2023-02-07T04:18:13.642Z,103673.09
2023-02-07T04:23:17.599Z,103666.91
2023-02-07T04:28:22.164Z,103671.41
2023-02-07T04:33:24.772Z,103679.25
2023-02-07T04:38:29.293Z,103612.78
2023-02-07T04:43:32.577Z,103639.91
2023-02-07T04:48:37.431Z,103669.69
2023-02-07T04:53:41.793Z,103657.44
2023-02-07T04:58:44.418Z,103666.88
2023-02-07T05:03:46.971Z,103662.50
2023-02-07T05:08:50.862Z,103640.41
2023-02-07T05:13:53.464Z,103667.06
2023-02-07T05:18:56.187Z,103667.59
2023-02-07T05:24:00.071Z,103680.03
2023-02-07T05:29:02.688Z,103684.59
2023-02-07T05:34:05.227Z,103571.16
2023-02-07T05:39:09.115Z,103701.13
2023-02-07T05:44:11.660Z,103704.63
2023-02-07T05:49:14.616Z,103708.94
2023-02-07T05:54:18.494Z,103704.50
2023-02-07T05:59:21.282Z,103703.19
2023-02-07T06:04:23.913Z,103706.44
2023-02-07T06:09:27.943Z,103711.94
2023-02-07T06:14:30.471Z,103706.84
2023-02-07T06:19:32.988Z,103708.59
2023-02-07T06:24:37.303Z,103706.09
2023-02-07T06:29:39.857Z,103711.31
2023-02-07T06:34:42.501Z,103708.88
2023-02-07T06:39:46.394Z,103718.34
2023-02-07T06:44:48.978Z,103709.38
2023-02-07T06:49:51.522Z,103721.44
2023-02-07T06:54:55.415Z,103719.72
2023-02-07T06:59:58.385Z,103718.97
2023-02-07T07:05:00.908Z,103728.50
2023-02-07T07:10:06.130Z,103740.53
2023-02-07T07:15:09.529Z,103753.91
2023-02-07T07:20:12.930Z,103747.09
2023-02-07T07:25:16.961Z,103746.91
2023-02-07T07:30:19.749Z,103759.38
2023-02-07T07:35:22.323Z,103752.88
2023-02-07T07:40:26.189Z,103767.81
2023-02-07T07:45:28.941Z,103766.19
2023-02-07T07:50:31.475Z,103775.16
2023-02-07T07:55:35.753Z,103770.09
2023-02-07T08:00:38.431Z,103779.13
2023-02-07T08:05:41.674Z,103767.94
2023-02-07T08:10:46.366Z,103783.78
2023-02-07T08:15:48.908Z,103789.16
2023-02-07T08:20:51.790Z,103783.28
2023-02-07T08:25:56.060Z,103786.06
2023-02-07T08:31:01.093Z,103786.00
2023-02-07T08:36:07.949Z,103773.88
2023-02-07T08:41:11.824Z,103793.22
2023-02-07T08:46:14.818Z,103791.69
2023-02-07T08:51:17.465Z,103804.06
2023-02-07T08:56:21.574Z,103798.97
2023-02-07T09:01:24.210Z,103794.66
2023-02-07T09:06:27.287Z,103792.16
2023-02-07T09:11:31.471Z,103793.03
2023-02-07T09:16:34.072Z,103795.19
2023-02-07T09:21:37.873Z,103785.50
2023-02-07T09:26:41.822Z,103786.38
2023-02-07T09:31:44.639Z,103682.97
2023-02-07T09:36:49.926Z,103774.41
2023-02-07T09:42:05.670Z,103776.44
2023-02-07T09:47:15.580Z,103777.41
2023-02-07T09:52:23.086Z,103771.41
2023-02-07T09:57:38.658Z,103775.09
2023-02-07T10:02:46.918Z,103762.94
2023-02-07T10:07:50.535Z,103771.84
2023-02-07T10:13:08.575Z,103765.94
2023-02-07T10:18:42.359Z,103761.66
2023-02-07T10:24:01.028Z,103756.50
2023-02-07T10:29:33.213Z,103761.84
2023-02-07T10:34:39.659Z,103763.69
2023-02-07T10:39:46.533Z,103760.16
2023-02-07T10:44:50.902Z,103761.94
2023-02-07T10:49:55.686Z,103751.63
2023-02-07T10:55:00.834Z,103759.50
2023-02-07T11:00:10.755Z,103764.81
2023-02-07T11:11:40.490Z,103756.16
2023-02-07T11:16:46.499Z,103770.19
2023-02-07T11:21:51.147Z,103749.16
2023-02-07T11:26:58.082Z,103750.06
2023-02-07T11:32:03.540Z,103752.78
2023-02-07T11:37:22.320Z,103731.78
2023-02-07T11:42:30.618Z,103733.63
2023-02-07T11:47:35.897Z,103740.63
2023-02-07T11:52:40.576Z,103738.06
2023-02-07T11:57:43.373Z,103626.81
2023-02-07T12:02:52.605Z,103725.03
2023-02-07T12:08:01.702Z,103713.69
2023-02-07T12:13:11.560Z,103720.72
2023-02-07T12:18:24.307Z,103721.63
2023-02-07T12:23:44.716Z,103718.13
2023-02-07T12:29:01.268Z,103685.72
2023-02-07T12:34:19.857Z,103713.72
2023-02-07T12:39:30.733Z,103708.47
2023-02-07T12:44:39.558Z,103711.09
2023-02-07T12:50:03.900Z,103708.50
2023-02-07T12:55:23.410Z,103697.09
2023-02-07T13:00:33.086Z,103697.97
2023-02-07T13:05:50.785Z,103676.94
2023-02-07T13:11:02.706Z,103683.97
2023-02-07T13:16:14.357Z,103683.09
2023-02-07T13:21:24.099Z,103680.44
2023-02-07T13:26:28.175Z,103669.94
2023-02-07T13:31:39.507Z,103661.19
2023-02-07T13:36:45.159Z,103657.59
2023-02-07T13:42:00.052Z,103649.56
2023-02-07T13:47:17.055Z,103657.34
2023-02-07T13:52:28.330Z,103657.19
2023-02-07T13:57:59.930Z,103653.50
2023-02-07T14:03:05.040Z,103654.25
2023-02-07T14:08:24.724Z,103624.56
2023-02-07T14:13:35.497Z,103650.88
2023-02-07T14:18:48.440Z,103608.16
2023-02-07T14:24:03.592Z,103626.66
2023-02-07T14:29:34.955Z,103653.91
2023-02-07T14:35:05.296Z,103646.06
2023-02-07T14:40:20.547Z,103650.56
2023-02-07T14:45:24.184Z,103636.53
2023-02-07T14:50:30.655Z,103637.44
2023-02-07T14:55:42.614Z,103647.06
2023-02-07T15:00:49.006Z,103643.59
2023-02-07T15:05:54.513Z,103651.47
2023-02-07T15:11:02.282Z,103642.72
2023-02-07T15:16:08.098Z,103634.84
2023-02-07T15:21:17.177Z,103616.47
2023-02-07T15:26:21.214Z,103534.22
2023-02-07T15:31:23.996Z,103638.38
2023-02-07T15:36:33.032Z,103615.59
2023-02-07T15:41:36.989Z,103633.13
2023-02-07T15:46:47.236Z,103624.38
2023-02-07T15:51:51.458Z,103627.88
2023-02-07T15:56:59.472Z,103625.25
2023-02-07T16:02:03.113Z,103628.75
2023-02-07T16:07:11.966Z,103633.13
2023-02-07T16:12:42.666Z,103629.66
2023-02-07T16:17:46.293Z,103626.16
2023-02-07T16:22:49.791Z,103636.66
2023-02-07T16:27:54.406Z,103552.63
2023-02-07T16:32:57.023Z,103641.03
2023-02-07T16:37:59.612Z,103644.50
2023-02-07T16:43:06.403Z,103646.28
2023-02-07T16:48:15.748Z,103655.00
2023-02-07T16:53:18.476Z,103658.50
2023-02-07T16:58:27.151Z,103664.53
2023-02-07T17:03:29.889Z,103557.63
2023-02-07T17:08:32.467Z,103661.00
2023-02-07T17:13:36.348Z,103639.94
2023-02-07T17:18:38.938Z,103670.63
2023-02-07T17:23:43.167Z,103643.41
2023-02-07T17:28:47.121Z,103661.81
2023-02-07T17:33:51.419Z,103681.78
2023-02-07T17:38:55.738Z,103682.72
2023-02-07T17:44:00.412Z,103690.56
2023-02-07T17:49:04.083Z,103657.25
2023-02-07T17:54:07.256Z,103680.06
2023-02-07T17:59:25.752Z,103671.28
2023-02-07T18:04:28.374Z,103679.16
2023-02-07T18:09:31.104Z,103675.69
2023-02-07T18:14:34.994Z,103678.41
2023-02-07T18:19:37.806Z,103684.44
2023-02-07T18:24:40.510Z,103687.94
2023-02-07T18:29:44.661Z,103682.72
2023-02-07T18:34:47.234Z,103653.66
2023-02-07T18:39:50.130Z,103682.63
2023-02-07T18:44:54.096Z,103667.78
2023-02-07T18:49:56.647Z,103665.19
2023-02-07T18:54:59.613Z,103661.66
2023-02-07T19:00:04.329Z,103648.50
2023-02-07T19:05:07.971Z,103655.56
2023-02-07T19:10:12.206Z,103649.34
2023-02-07T19:15:16.352Z,103659.84
2023-02-07T19:20:19.210Z,103661.50
2023-02-07T19:25:22.254Z,103668.47
2023-02-07T19:30:26.286Z,103670.06
2023-02-07T19:35:28.916Z,103649.03
2023-02-07T19:40:31.791Z,103669.22
2023-02-07T19:45:35.916Z,103614.88
2023-02-07T19:50:39.420Z,103662.22
2023-02-07T19:55:42.843Z,103656.94
2023-02-07T20:00:47.331Z,103657.00
2023-02-07T20:05:49.989Z,103647.34
2023-02-07T20:10:52.607Z,103648.97
2023-02-07T20:15:56.575Z,103643.69
2023-02-07T20:21:06.512Z,103613.06
2023-02-07T20:26:17.080Z,103606.91
2023-02-07T20:31:23.524Z,103636.63
2023-02-07T20:36:27.192Z,103642.78
2023-02-07T20:41:30.127Z,103635.75
2023-02-07T20:46:35.362Z,103637.44
2023-02-07T20:51:38.801Z,103633.16
2023-02-07T20:56:41.661Z,103635.63
2023-02-07T21:01:45.959Z,103640.69
2023-02-07T21:06:48.895Z,103640.56
2023-02-07T21:11:53.084Z,103649.47
2023-02-07T21:17:01.157Z,103644.94
2023-02-07T21:22:05.277Z,103648.38
2023-02-07T21:27:08.137Z,103651.03
2023-02-07T21:32:12.382Z,103649.16
2023-02-07T21:37:15.535Z,103648.22
2023-02-07T21:42:18.188Z,103643.75
2023-02-07T21:47:22.074Z,103649.88
2023-02-07T21:52:24.780Z,103641.78
2023-02-07T21:57:27.577Z,103645.34
2023-02-07T22:02:31.540Z,103652.38
2023-02-07T22:07:34.191Z,103639.28
2023-02-07T22:12:36.771Z,103647.22
2023-02-07T22:17:40.641Z,103639.31
2023-02-07T22:22:43.188Z,103640.09
2023-02-07T22:27:45.909Z,103634.16
2023-02-07T22:32:49.883Z,103629.63
2023-02-07T22:37:53.173Z,103631.31
2023-02-07T22:42:56.152Z,103638.41
2023-02-07T22:48:00.178Z,103641.88
2023-02-07T22:53:02.848Z,103640.78
2023-02-07T22:58:05.386Z,103651.25
2023-02-07T23:03:09.620Z,103652.09
2023-02-07T23:08:13.669Z,103663.06
2023-02-07T23:13:16.995Z,103664.03
2023-02-07T23:18:21.057Z,103655.31
2023-02-07T23:23:24.041Z,103664.03
2023-02-07T23:28:26.590Z,103648.28
2023-02-07T23:33:30.535Z,103663.75
2023-02-07T23:38:33.614Z,103667.06
2023-02-07T23:43:36.717Z,103626.81
2023-02-07T23:48:40.640Z,103647.81
2023-02-07T23:53:44.381Z,103645.44
2023-02-07T23:58:48.638Z,103642.88
